createdAt,value
2022-12-09T00:01:31.326Z,99879.55
2022-12-09T00:04:58.521Z,99878.38
2022-12-09T00:08:25.490Z,99877.33
2022-12-09T00:11:53.800Z,99875.25
2022-12-09T00:15:20.941Z,99873.66
2022-12-09T00:18:48.360Z,99876.16
2022-12-09T00:22:15.284Z,99880.25
2022-12-09T00:25:42.295Z,99885.41
2022-12-09T00:29:09.914Z,99889.55
2022-12-09T00:32:38.010Z,99892.64
2022-12-09T00:36:09.745Z,99888.34
2022-12-09T00:39:36.979Z,99892.48
2022-12-09T00:43:04.268Z,99894.88
2022-12-09T00:46:31.084Z,99899.70
2022-12-09T00:49:58.309Z,99906.06
2022-12-09T00:53:26.124Z,99907.05
2022-12-09T00:56:53.876Z,99909.61
2022-12-09T01:00:21.938Z,99909.60
2022-12-09T01:03:50.263Z,99909.92
2022-12-09T01:07:17.297Z,99909.09
2022-12-09T01:10:45.458Z,99907.54
2022-12-09T01:14:12.300Z,99906.61
2022-12-09T01:17:40.698Z,99904.15
2022-12-09T01:21:08.126Z,99908.99
2022-12-09T01:24:34.926Z,99907.48
2022-12-09T01:28:01.784Z,99908.44
2022-12-09T01:31:29.398Z,99905.30
2022-12-09T01:34:56.530Z,99901.39
2022-12-09T01:38:23.227Z,99908.05
2022-12-09T01:41:51.466Z,99909.19
2022-12-09T01:45:40.758Z,99911.33
2022-12-09T01:49:10.846Z,99913.00
2022-12-09T01:52:38.343Z,99914.50
2022-12-09T01:56:10.081Z,99918.42
2022-12-09T01:59:37.825Z,99920.97
2022-12-09T02:03:07.174Z,99918.67
2022-12-09T02:06:36.433Z,99920.09
2022-12-09T02:10:11.427Z,99917.51
2022-12-09T02:13:48.467Z,99917.69
2022-12-09T02:17:35.036Z,99917.31
2022-12-09T02:21:09.414Z,99917.61
2022-12-09T02:24:42.499Z,99923.57
2022-12-09T02:28:34.617Z,99928.25
2022-12-09T02:32:22.198Z,99925.77
2022-12-09T02:35:55.016Z,99927.05
2022-12-09T02:39:25.672Z,99926.17
2022-12-09T02:42:53.828Z,99926.02
2022-12-09T02:46:22.929Z,99926.52
2022-12-09T02:49:56.181Z,99929.14
2022-12-09T02:53:25.903Z,99928.30
2022-12-09T02:56:57.863Z,99926.64
2022-12-09T03:00:27.721Z,99926.93
2022-12-09T03:03:56.706Z,99936.27
2022-12-09T03:07:32.139Z,99934.39
2022-12-09T03:11:02.303Z,99930.12
2022-12-09T03:14:34.674Z,99929.62
2022-12-09T03:18:05.950Z,99927.05
2022-12-09T03:21:36.568Z,99925.64
2022-12-09T03:25:09.026Z,99927.42
2022-12-09T03:28:42.280Z,99925.59
2022-12-09T03:32:11.957Z,99923.15
2022-12-09T03:35:40.842Z,99922.34
2022-12-09T03:39:11.088Z,99916.16
2022-12-09T03:42:44.242Z,99919.06
2022-12-09T03:46:11.516Z,99915.98
2022-12-09T03:49:40.382Z,99920.99
2022-12-09T03:53:14.194Z,99919.29
2022-12-09T03:56:45.503Z,99920.35
2022-12-09T04:00:14.937Z,99921.10
2022-12-09T04:03:45.139Z,99917.69
2022-12-09T04:07:11.673Z,99917.04
2022-12-09T04:10:42.294Z,99919.44
2022-12-09T04:14:15.113Z,99917.84
2022-12-09T04:17:42.690Z,99922.19
2022-12-09T04:21:13.040Z,99923.37
2022-12-09T04:24:41.172Z,99919.30
2022-12-09T04:28:08.135Z,99914.29
2022-12-09T04:31:35.272Z,99917.02
2022-12-09T04:35:02.965Z,99915.94
2022-12-09T04:38:30.171Z,99916.93
2022-12-09T04:41:56.910Z,99918.75
2022-12-09T04:45:24.087Z,99922.23
2022-12-09T04:48:50.882Z,99923.63
2022-12-09T04:52:19.890Z,99922.14
2022-12-09T04:55:46.752Z,99914.94
2022-12-09T04:59:14.723Z,99917.15
2022-12-09T05:02:42.301Z,99922.60
2022-12-09T05:06:34.615Z,99918.96
2022-12-09T05:20:02.712Z,99926.79
2022-12-09T05:23:29.805Z,99931.16
2022-12-09T05:26:56.617Z,99932.33
2022-12-09T05:30:23.563Z,99933.67
2022-12-09T05:33:52.473Z,99936.77
2022-12-09T05:37:20.009Z,99937.30
2022-12-09T05:40:47.233Z,99936.59
2022-12-09T05:44:14.662Z,99937.04
2022-12-09T05:47:42.536Z,99940.02
2022-12-09T05:51:13.092Z,99940.81
2022-12-09T05:54:40.092Z,99940.63
2022-12-09T05:58:06.943Z,99940.76
2022-12-09T06:01:33.653Z,99937.48
2022-12-09T06:05:00.605Z,99944.44
2022-12-09T06:08:28.297Z,99943.33
2022-12-09T06:11:55.275Z,99944.21
2022-12-09T06:15:24.793Z,99947.52
2022-12-09T06:18:55.226Z,99948.88
2022-12-09T06:22:22.465Z,99948.55
2022-12-09T06:25:49.727Z,99950.25
2022-12-09T06:29:16.894Z,99950.55
2022-12-09T06:32:43.821Z,99951.90
2022-12-09T06:36:12.625Z,99953.98
2022-12-09T06:39:39.618Z,99952.47
2022-12-09T06:43:06.849Z,99953.19
2022-12-09T06:46:33.755Z,99956.84
2022-12-09T06:50:06.697Z,99963.64
2022-12-09T06:53:34.807Z,99969.86
2022-12-09T06:57:01.876Z,99966.38
2022-12-09T07:00:29.202Z,99967.40
2022-12-09T07:03:58.418Z,99974.25
2022-12-09T07:07:25.864Z,99982.04
2022-12-09T07:10:56.553Z,99981.91
2022-12-09T07:14:24.074Z,99976.95
2022-12-09T07:17:51.301Z,99977.17
2022-12-09T07:21:20.785Z,99977.66
2022-12-09T07:24:48.169Z,99978.39
2022-12-09T07:28:15.109Z,99979.53
2022-12-09T07:31:42.378Z,99976.29
2022-12-09T07:35:11.412Z,99979.74
2022-12-09T07:38:38.266Z,99983.23
2022-12-09T07:42:05.386Z,99978.10
2022-12-09T07:45:44.930Z,99979.96
2022-12-09T07:49:13.238Z,99987.65
2022-12-09T07:52:40.367Z,99989.05
2022-12-09T07:56:11.820Z,99989.33
2022-12-09T07:59:39.138Z,99992.65
2022-12-09T08:03:06.749Z,99995.88
2022-12-09T08:06:34.178Z,99994.14
2022-12-09T08:10:01.451Z,99993.48
2022-12-09T08:13:29.222Z,99994.95
2022-12-09T08:16:56.330Z,99994.90
2022-12-09T08:20:28.773Z,100001.43
2022-12-09T08:23:58.285Z,100002.27
2022-12-09T08:27:25.384Z,100001.27
2022-12-09T08:30:52.910Z,100002.38
2022-12-09T08:34:20.624Z,100000.64
2022-12-09T08:37:48.499Z,100001.52
2022-12-09T08:41:17.696Z,99999.64
2022-12-09T08:44:45.298Z,100000.48
2022-12-09T08:48:12.126Z,100000.86
2022-12-09T08:51:40.530Z,100002.83
2022-12-09T08:55:08.797Z,100003.94
2022-12-09T08:58:36.222Z,100006.52
2022-12-09T09:02:03.501Z,100007.68
2022-12-09T09:05:31.095Z,100010.98
2022-12-09T09:08:59.210Z,100008.51
2022-12-09T09:12:26.127Z,100011.24
2022-12-09T09:15:53.534Z,100015.64
2022-12-09T09:19:22.596Z,100014.85
2022-12-09T09:22:50.021Z,100016.78
2022-12-09T09:26:19.269Z,100009.81
2022-12-09T09:29:46.306Z,100007.67
2022-12-09T09:33:13.210Z,100007.19
2022-12-09T09:36:41.409Z,100009.05
2022-12-09T09:40:12.729Z,100010.31
2022-12-09T09:53:55.405Z,100014.41
2022-12-09T09:57:29.917Z,100008.72
2022-12-09T10:01:04.224Z,100006.98
2022-12-09T10:04:42.326Z,100009.53
2022-12-09T10:08:34.091Z,100006.86
2022-12-09T10:12:12.219Z,100006.92
2022-12-09T10:15:47.071Z,100006.30
2022-12-09T10:19:22.548Z,99999.99
2022-12-09T10:22:53.932Z,99999.00
2022-12-09T10:26:25.559Z,99997.66
2022-12-09T10:29:59.081Z,99993.16
2022-12-09T10:33:30.734Z,99995.27
2022-12-09T10:36:58.473Z,99994.93
2022-12-09T10:40:32.847Z,99992.69
2022-12-09T10:44:22.475Z,99990.27
2022-12-09T10:47:54.092Z,99989.56
2022-12-09T10:51:24.981Z,99988.40
2022-12-09T10:54:52.307Z,99982.71
2022-12-09T10:58:22.446Z,99978.69
2022-12-09T11:01:54.964Z,99973.48
2022-12-09T11:05:28.777Z,99972.45
2022-12-09T11:08:59.079Z,99965.61
2022-12-09T11:12:41.039Z,99964.58
2022-12-09T11:16:09.921Z,99961.83
2022-12-09T11:19:40.043Z,99961.38
2022-12-09T11:23:16.347Z,99958.39
2022-12-09T11:26:43.420Z,99955.20
2022-12-09T11:30:17.111Z,99953.94
2022-12-09T11:33:54.618Z,99950.98
2022-12-09T11:37:22.431Z,99950.94
2022-12-09T11:41:02.721Z,99952.45
2022-12-09T11:44:33.052Z,99954.47
2022-12-09T11:48:31.882Z,99954.78
2022-12-09T11:52:06.795Z,99949.27
2022-12-09T11:55:35.290Z,99947.55
2022-12-09T11:59:06.034Z,99944.04
2022-12-09T12:02:41.610Z,99943.16
2022-12-09T12:06:16.214Z,99939.55
2022-12-09T12:09:49.628Z,99929.45
2022-12-09T12:13:24.422Z,99926.95
2022-12-09T12:16:58.388Z,99929.52
2022-12-09T12:20:38.012Z,99928.30
2022-12-09T12:24:11.779Z,99924.98
2022-12-09T12:27:47.745Z,99922.38
2022-12-09T12:31:30.843Z,99910.11
2022-12-09T12:35:31.287Z,99900.09
2022-12-09T12:39:07.426Z,99904.19
2022-12-09T12:43:09.683Z,99904.07
2022-12-09T12:46:53.802Z,99905.27
2022-12-09T12:50:33.245Z,99906.55
2022-12-09T12:54:16.452Z,99904.42
2022-12-09T12:57:49.104Z,99907.32
2022-12-09T13:01:25.567Z,99906.64
2022-12-09T13:04:58.454Z,99900.28
2022-12-09T13:08:31.197Z,99906.77
2022-12-09T13:12:12.861Z,99912.08
2022-12-09T13:15:44.462Z,99914.10
2022-12-09T13:19:21.544Z,99917.59
2022-12-09T13:22:54.235Z,99918.71
2022-12-09T13:26:34.419Z,99921.77
2022-12-09T13:30:07.813Z,99920.80
2022-12-09T13:33:51.131Z,99918.77
2022-12-09T13:38:01.106Z,99921.75
2022-12-09T13:42:03.185Z,99920.94
2022-12-09T13:45:35.577Z,99920.89
2022-12-09T13:49:11.963Z,99923.44
2022-12-09T13:52:45.924Z,99928.50
2022-12-09T13:56:26.336Z,99926.11
2022-12-09T13:59:55.089Z,99927.56
2022-12-09T14:03:30.711Z,99927.10
2022-12-09T14:07:09.698Z,99925.70
2022-12-09T14:10:44.159Z,99925.97
2022-12-09T14:14:57.285Z,99929.42
2022-12-09T14:18:33.307Z,99930.45
2022-12-09T14:22:31.144Z,99927.05
2022-12-09T14:26:06.429Z,99923.24
2022-12-09T14:29:55.239Z,99916.67
2022-12-09T14:33:31.786Z,99916.15
2022-12-09T14:37:18.162Z,99913.80
2022-12-09T14:40:55.996Z,99912.88
2022-12-09T14:44:31.918Z,99913.23
2022-12-09T14:47:58.925Z,99912.02
2022-12-09T14:51:29.265Z,99919.41
2022-12-09T14:54:58.805Z,99915.91
2022-12-09T14:58:24.438Z,99917.65
2022-12-09T15:01:57.801Z,99916.70
2022-12-09T15:05:24.882Z,99915.33
2022-12-09T15:08:54.513Z,99912.20
2022-12-09T15:12:20.992Z,99911.06
2022-12-09T15:15:47.980Z,99906.64
2022-12-09T15:19:57.983Z,99911.20
2022-12-09T15:23:20.920Z,99911.37
2022-12-09T15:26:59.730Z,99907.64
2022-12-09T15:30:31.149Z,99903.15
2022-12-09T15:34:00.099Z,99905.98
2022-12-09T15:37:29.869Z,99896.20
2022-12-09T15:41:17.126Z,99897.08
2022-12-09T15:44:48.262Z,99898.70
2022-12-09T15:48:19.778Z,99893.94
2022-12-09T15:51:48.283Z,99894.23
2022-12-09T15:55:20.784Z,99894.35
2022-12-09T15:58:50.692Z,99891.52
2022-12-09T16:02:26.550Z,99895.59
2022-12-09T16:05:57.657Z,99894.64
2022-12-09T16:09:25.073Z,99891.54
2022-12-09T16:13:07.462Z,99889.70
2022-12-09T16:16:41.396Z,99886.86
2022-12-09T16:20:41.287Z,99886.48
2022-12-09T16:24:15.011Z,99892.77
2022-12-09T16:27:48.592Z,99897.77
2022-12-09T16:31:20.716Z,99902.70
2022-12-09T16:34:49.748Z,99903.86
2022-12-09T16:38:21.002Z,99906.70
2022-12-09T16:42:01.756Z,99911.29
2022-12-09T16:45:34.972Z,99914.52
2022-12-09T16:49:07.786Z,99912.14
2022-12-09T16:52:34.577Z,99907.48
2022-12-09T16:56:04.282Z,99903.61
2022-12-09T16:59:37.540Z,99908.86
2022-12-09T17:03:07.291Z,99904.06
2022-12-09T17:06:34.005Z,99901.52
2022-12-09T17:10:00.658Z,99900.68
2022-12-09T17:13:27.534Z,99899.48
2022-12-09T17:16:54.285Z,99896.14
2022-12-09T17:20:21.662Z,99896.55
2022-12-09T17:23:49.090Z,99896.38
2022-12-09T17:27:16.138Z,99893.48
2022-12-09T17:30:42.760Z,99890.50
2022-12-09T17:34:09.490Z,99886.71
2022-12-09T17:37:36.197Z,99889.92
2022-12-09T17:41:08.414Z,99896.51
2022-12-09T17:44:36.030Z,99897.89
2022-12-09T17:48:03.275Z,99903.32
2022-12-09T17:51:35.640Z,99902.64
2022-12-09T17:55:03.446Z,99904.83
2022-12-09T17:58:30.177Z,99906.23
2022-12-09T18:01:57.022Z,99911.61
2022-12-09T18:05:23.730Z,99916.67
2022-12-09T18:08:50.554Z,99917.68
2022-12-09T18:12:17.383Z,99918.73
2022-12-09T18:15:44.282Z,99919.29
2022-12-09T18:19:15.294Z,99920.95
2022-12-09T18:22:42.517Z,99912.79
2022-12-09T18:26:11.354Z,99913.80
2022-12-09T18:29:41.487Z,99912.89
2022-12-09T18:33:08.256Z,99912.20
2022-12-09T18:36:35.318Z,99910.73
2022-12-09T18:40:02.065Z,99902.31
2022-12-09T18:43:30.256Z,99907.20
2022-12-09T18:46:57.081Z,99904.38
2022-12-09T18:50:23.892Z,99908.09
2022-12-09T18:53:50.940Z,99906.33
2022-12-09T18:57:17.780Z,99900.15
2022-12-09T19:00:44.682Z,99902.21
2022-12-09T19:04:16.244Z,99901.38
2022-12-09T19:07:43.287Z,99899.63
2022-12-09T19:11:10.107Z,99905.22
2022-12-09T19:14:38.565Z,99907.77
2022-12-09T19:18:05.761Z,99909.30
2022-12-09T19:21:32.576Z,99910.02
2022-12-09T19:24:59.221Z,99908.36
2022-12-09T19:28:27.037Z,99910.58
2022-12-09T19:31:54.965Z,99906.29
2022-12-09T19:35:21.848Z,99903.40
2022-12-09T19:38:48.556Z,99900.30
2022-12-09T19:42:15.287Z,99902.21
2022-12-09T19:45:42.026Z,99898.44
2022-12-09T19:49:09.352Z,99898.27
2022-12-09T19:52:36.066Z,99903.23
2022-12-09T19:56:04.464Z,99901.71
2022-12-09T19:59:31.513Z,99904.21
2022-12-09T20:02:59.654Z,99903.73
2022-12-09T20:06:27.566Z,99899.80
2022-12-09T20:09:54.486Z,99898.77
2022-12-09T20:13:21.385Z,99899.47
2022-12-09T20:16:48.551Z,99891.95
2022-12-09T20:20:15.652Z,99888.58
2022-12-09T20:23:43.768Z,99889.38
2022-12-09T20:27:11.117Z,99890.40
2022-12-09T20:30:37.836Z,99889.02
2022-12-09T20:34:07.416Z,99892.51
2022-12-09T20:37:34.757Z,99890.06
2022-12-09T20:41:05.515Z,99891.11
2022-12-09T20:44:33.336Z,99892.98
2022-12-09T20:48:00.097Z,99892.64
2022-12-09T20:51:28.460Z,99895.25
2022-12-09T20:54:55.499Z,99894.39
2022-12-09T20:58:22.304Z,99895.54
2022-12-09T21:01:49.115Z,99898.39
2022-12-09T21:05:16.058Z,99895.11
2022-12-09T21:08:43.278Z,99896.83
2022-12-09T21:12:10.233Z,99898.51
2022-12-09T21:15:36.922Z,99899.73
2022-12-09T21:19:07.297Z,99898.97
2022-12-09T21:22:34.111Z,99897.30
2022-12-09T21:26:06.326Z,99897.55
2022-12-09T21:29:33.015Z,99896.53
2022-12-09T21:32:59.851Z,99902.41
2022-12-09T21:36:30.053Z,99904.54
2022-12-09T21:39:56.905Z,99909.96
2022-12-09T21:43:23.652Z,99908.48
2022-12-09T21:46:50.413Z,99902.56
2022-12-09T21:50:17.443Z,99904.66
2022-12-09T21:53:44.722Z,99901.29
2022-12-09T21:57:11.770Z,99908.58
2022-12-09T22:00:39.854Z,99909.30
2022-12-09T22:04:09.541Z,99905.93
2022-12-09T22:07:36.732Z,99904.48
2022-12-09T22:11:08.019Z,99905.95
2022-12-09T22:14:35.405Z,99902.41
2022-12-09T22:18:02.411Z,99900.37
2022-12-09T22:21:31.038Z,99899.77
2022-12-09T22:24:58.214Z,99899.64
2022-12-09T22:28:25.282Z,99900.74
2022-12-09T22:31:51.994Z,99896.71
2022-12-09T22:35:19.027Z,99901.67
2022-12-09T22:38:46.124Z,99900.20
2022-12-09T22:42:13.728Z,99899.34
2022-12-09T22:45:40.660Z,99898.44
2022-12-09T22:49:09.807Z,99900.41
2022-12-09T22:52:36.804Z,99899.10
2022-12-09T22:56:04.008Z,99898.63
2022-12-09T22:59:31.179Z,99899.88
2022-12-09T23:02:57.990Z,99902.65
2022-12-09T23:06:25.503Z,99905.66
2022-12-09T23:09:52.184Z,99905.75
2022-12-09T23:13:19.243Z,99906.44
2022-12-09T23:16:46.566Z,99901.59
2022-12-09T23:20:14.451Z,99899.13
2022-12-09T23:23:42.139Z,99898.65
2022-12-09T23:27:08.877Z,99897.94
2022-12-09T23:30:36.346Z,99901.85
2022-12-09T23:34:04.069Z,99901.77
2022-12-09T23:37:31.746Z,99896.94
2022-12-09T23:40:58.657Z,99898.46
2022-12-09T23:44:25.669Z,99898.80
2022-12-09T23:47:52.313Z,99899.10
2022-12-09T23:51:21.385Z,99904.28
2022-12-09T23:54:48.190Z,99910.98
2022-12-09T23:58:15.431Z,99910.34
